Time;durP1;ratioP1;P1;durP2;ratioP2;P2;SDS_P1;SDS_P2;PMS_P1;PMS_P2;Temp;Humidity;BMP_temperature;BMP_pressure;BME280_temperature;BME280_humidity;BME280_pressure;Samples;Min_cycle;Max_cycle;Signal;HPM_P1;HPM_P2
2024/01/05 00:01:39;;;;;;;13.65;6.78;;;2.30;99.90;;;;;;5082732;28;20127;-60
2024/01/05 00:04:04;;;;;;;10.93;5.95;;;2.30;99.90;;;;;;5081643;28;20523;-59
2024/01/05 00:06:30;;;;;;;13.57;6.47;;;2.30;99.90;;;;;;5082592;28;20048;-60
2024/01/05 00:08:56;;;;;;;11.52;6.53;;;3.30;99.90;;;;;;5063764;28;20059;-59
2024/01/05 00:11:22;;;;;;;16.50;7.40;;;3.20;99.90;;;;;;5082503;28;20041;-59
2024/01/05 00:13:48;;;;;;;12.35;6.00;;;3.30;99.90;;;;;;5082104;28;20097;-58
2024/01/05 00:16:20;;;;;;;12.63;6.10;;;3.20;99.90;;;;;;5064094;28;20086;-59
2024/01/05 00:18:46;;;;;;;11.73;6.18;;;3.00;99.90;;;;;;5082497;28;20071;-59
2024/01/05 00:21:22;;;;;;;13.60;6.88;;;3.40;99.90;;;;;;5063792;28;20132;-59
2024/01/05 00:23:49;;;;;;;12.82;6.57;;;3.20;99.90;;;;;;5082217;28;20040;-59
2024/01/05 00:26:15;;;;;;;17.38;6.78;;;2.50;99.90;;;;;;5081677;28;20044;-59
2024/01/05 00:28:40;;;;;;;14.55;6.43;;;2.30;99.90;;;;;;5082050;28;20566;-60
2024/01/05 00:31:11;;;;;;;13.07;5.70;;;3.30;99.90;;;;;;5082240;28;20141;-60
2024/01/05 00:33:37;;;;;;;9.82;5.15;;;3.00;99.90;;;;;;5081452;28;20047;-60
2024/01/05 00:36:04;;;;;;;12.48;5.28;;;2.50;99.90;;;;;;5081959;28;20079;-60
2024/01/05 00:38:30;;;;;;;13.77;5.93;;;3.10;99.90;;;;;;5081394;28;20049;-60
2024/01/05 00:40:55;;;;;;;12.13;5.10;;;2.10;99.90;;;;;;5063794;28;20048;-61
2024/01/05 00:43:21;;;;;;;13.13;6.15;;;3.30;99.90;;;;;;5081570;28;20075;-61
2024/01/05 00:45:46;;;;;;;14.38;6.20;;;2.10;99.90;;;;;;5081771;28;20037;-60
2024/01/05 00:48:12;;;;;;;12.43;6.00;;;3.20;99.90;;;;;;5081845;28;20044;-60
2024/01/05 00:50:38;;;;;;;14.32;6.20;;;3.60;99.90;;;;;;5081427;28;20059;-60
2024/01/05 00:53:03;;;;;;;13.23;5.32;;;3.20;99.90;;;;;;5081755;28;20056;-61
2024/01/05 00:55:29;;;;;;;12.60;5.40;;;3.00;99.90;;;;;;5080567;28;20059;-61
2024/01/05 00:57:55;;;;;;;12.40;6.28;;;3.20;99.90;;;;;;5081283;28;20111;-60
2024/01/05 01:00:20;;;;;;;13.52;6.10;;;2.00;99.90;;;;;;5063088;28;20048;-61
2024/01/05 01:02:46;;;;;;;14.60;6.47;;;2.80;99.90;;;;;;5081592;28;20044;-61
2024/01/05 01:05:12;;;;;;;17.83;6.53;;;2.40;99.90;;;;;;5081267;28;20417;-61
2024/01/05 01:07:39;;;;;;;13.73;6.00;;;2.30;99.90;;;;;;5081080;28;20036;-60
2024/01/05 01:10:05;;;;;;;11.27;5.88;;;2.00;99.90;;;;;;5081254;28;20067;-60
2024/01/05 01:12:31;;;;;;;13.43;5.63;;;2.60;99.90;;;;;;5079714;28;20090;-61
2024/01/05 01:14:56;;;;;;;12.93;6.10;;;3.10;99.90;;;;;;5081070;28;20041;-59
2024/01/05 01:17:22;;;;;;;13.65;6.60;;;2.80;99.90;;;;;;5080594;28;20056;-60
2024/01/05 01:19:49;;;;;;;17.08;6.85;;;1.90;99.90;;;;;;5079861;28;20037;-60
2024/01/05 01:22:15;;;;;;;14.52;5.90;;;2.00;99.90;;;;;;5081042;28;20040;-60
2024/01/05 01:24:40;;;;;;;15.13;6.97;;;2.60;99.90;;;;;;5080457;28;20119;-60
2024/01/05 01:27:06;;;;;;;13.50;5.93;;;1.90;99.90;;;;;;5081106;28;20040;-60
2024/01/05 01:29:31;;;;;;;13.07;6.50;;;2.00;99.90;;;;;;5080440;28;20047;-59
2024/01/05 01:31:57;;;;;;;12.77;6.82;;;1.90;99.90;;;;;;5080893;28;20048;-60
2024/01/05 01:34:23;;;;;;;15.00;6.38;;;1.90;99.90;;;;;;5080176;28;20048;-60
2024/01/05 01:36:51;;;;;;;15.80;6.78;;;2.50;99.90;;;;;;5080845;28;20048;-59
2024/01/05 01:39:16;;;;;;;14.27;5.90;;;3.10;99.90;;;;;;5080584;28;20043;-59
2024/01/05 01:41:43;;;;;;;14.98;6.10;;;2.80;99.90;;;;;;5080507;28;20044;-60
2024/01/05 01:44:08;;;;;;;14.20;6.32;;;3.00;99.90;;;;;;5080850;28;20040;-60
2024/01/05 01:46:36;;;;;;;14.02;5.88;;;2.90;99.90;;;;;;5080143;28;20052;-60
2024/01/05 01:49:03;;;;;;;13.95;6.60;;;2.70;99.90;;;;;;5080681;28;20051;-59
2024/01/05 01:51:31;;;;;;;13.55;6.50;;;1.90;99.90;;;;;;5080090;28;20049;-60
2024/01/05 01:54:05;;;;;;;15.57;6.75;;;2.50;99.90;;;;;;5080321;28;20044;-60
2024/01/05 01:56:35;;;;;;;11.90;6.03;;;1.90;99.90;;;;;;5080022;28;20047;-60
2024/01/05 01:59:02;;;;;;;13.15;5.90;;;2.90;99.90;;;;;;5079997;28;20080;-59
2024/01/05 02:01:28;;;;;;;14.88;6.30;;;1.90;99.90;;;;;;5080065;28;20113;-60
2024/01/05 02:03:54;;;;;;;12.43;5.68;;;2.90;99.90;;;;;;5079672;28;20050;-61
2024/01/05 02:06:20;;;;;;;14.20;5.82;;;3.00;99.90;;;;;;5080043;28;20065;-60
2024/01/05 02:08:47;;;;;;;13.10;6.25;;;2.90;99.90;;;;;;5079923;28;20047;-60
2024/01/05 02:11:13;;;;;;;14.50;6.38;;;1.90;99.90;;;;;;5080360;28;20067;-60
2024/01/05 02:13:39;;;;;;;16.15;6.25;;;1.90;99.90;;;;;;5080146;28;20049;-60
2024/01/05 02:16:05;;;;;;;16.00;6.20;;;2.30;99.90;;;;;;5079800;28;20036;-60
2024/01/05 02:18:31;;;;;;;13.88;5.90;;;2.90;99.90;;;;;;5080066;28;20077;-59
2024/01/05 02:21:00;;;;;;;16.13;6.70;;;1.90;99.90;;;;;;5079471;28;20051;-61
2024/01/05 02:23:27;;;;;;;14.27;5.78;;;1.90;99.90;;;;;;5079933;28;20041;-61
2024/01/05 02:25:56;;;;;;;16.77;6.80;;;3.00;99.90;;;;;;5079507;28;20087;-60
2024/01/05 02:28:22;;;;;;;14.52;6.28;;;1.80;99.90;;;;;;5080029;28;20096;-61
2024/01/05 02:30:48;;;;;;;16.27;6.13;;;2.20;99.90;;;;;;5079680;28;20047;-60
2024/01/05 02:33:13;;;;;;;15.77;5.97;;;1.90;99.90;;;;;;5079781;28;20064;-60
2024/01/05 02:35:39;;;;;;;15.35;6.63;;;3.10;99.90;;;;;;5079442;28;20048;-60
2024/01/05 02:38:05;;;;;;;14.32;5.93;;;1.80;99.90;;;;;;5079136;28;20040;-61
2024/01/05 02:40:31;;;;;;;14.25;6.38;;;2.70;99.90;;;;;;5079743;28;20044;-64
2024/01/05 02:42:57;;;;;;;15.10;5.82;;;1.80;99.90;;;;;;5079462;28;20615;-65
2024/01/05 02:45:24;;;;;;;14.82;6.43;;;2.30;99.90;;;;;;5079809;28;20052;-65
2024/01/05 02:47:50;;;;;;;15.85;6.85;;;3.00;99.90;;;;;;5079911;28;20052;-65
2024/01/05 02:50:17;;;;;;;17.02;6.78;;;3.10;99.90;;;;;;5079596;28;20085;-65
2024/01/05 02:52:43;;;;;;;17.13;6.90;;;3.10;99.90;;;;;;5080138;28;20043;-65
2024/01/05 02:55:12;;;;;;;18.30;6.28;;;2.70;99.90;;;;;;5079110;28;20037;-65
2024/01/05 02:57:38;;;;;;;11.93;6.00;;;1.90;99.90;;;;;;5079636;28;20040;-65
2024/01/05 03:00:05;;;;;;;15.75;5.82;;;1.80;99.90;;;;;;5079127;28;20059;-65
2024/01/05 03:02:31;;;;;;;16.00;6.18;;;3.00;99.90;;;;;;5079105;28;20119;-65
2024/01/05 03:04:57;;;;;;;16.35;6.15;;;3.00;99.90;;;;;;5079206;28;20048;-65
2024/01/05 03:07:23;;;;;;;15.60;6.22;;;3.00;99.90;;;;;;5079372;28;20051;-64
2024/01/05 03:09:49;;;;;;;14.75;6.40;;;1.70;99.90;;;;;;5079459;28;20088;-64
2024/01/05 03:12:16;;;;;;;15.55;6.47;;;3.10;99.90;;;;;;5060918;28;20119;-63
2024/01/05 03:14:41;;;;;;;15.25;6.60;;;1.80;99.90;;;;;;5079662;28;20043;-63
2024/01/05 03:17:07;;;;;;;16.27;6.53;;;2.50;99.90;;;;;;5078623;28;20041;-63
2024/01/05 03:19:33;;;;;;;15.38;6.63;;;2.70;99.90;;;;;;5079556;28;20037;-62
2024/01/05 03:21:59;;;;;;;14.52;6.15;;;3.00;99.90;;;;;;5079275;28;20040;-60
2024/01/05 03:24:24;;;;;;;14.40;5.82;;;3.10;99.90;;;;;;5079238;28;20029;-61
2024/01/05 03:26:50;;;;;;;14.23;7.05;;;3.10;99.90;;;;;;5079562;28;20104;-60
2024/01/05 03:29:16;;;;;;;19.85;6.57;;;2.70;99.90;;;;;;5078930;28;20044;-60
2024/01/05 03:31:45;;;;;;;18.80;6.90;;;3.00;99.90;;;;;;5079108;28;20040;-60
2024/01/05 03:34:12;;;;;;;16.42;6.82;;;1.70;99.90;;;;;;5078807;28;20136;-60
2024/01/05 03:36:37;;;;;;;14.73;6.70;;;2.80;99.90;;;;;;5082981;28;20101;-61
2024/01/05 03:39:03;;;;;;;15.73;7.60;;;2.10;99.90;;;;;;5082774;28;20085;-61
2024/01/05 03:41:29;;;;;;;14.38;5.72;;;1.70;99.90;;;;;;5083107;28;20049;-61
2024/01/05 03:43:55;;;;;;;17.40;7.05;;;3.10;99.90;;;;;;5082994;28;20523;-60
2024/01/05 03:46:20;;;;;;;14.60;6.30;;;1.70;99.90;;;;;;5082355;28;20040;-61
2024/01/05 03:48:46;;;;;;;15.05;6.00;;;1.80;99.90;;;;;;5082938;28;20047;-60
2024/01/05 03:51:12;;;;;;;16.48;6.88;;;2.20;99.90;;;;;;5082058;28;20097;-62
2024/01/05 03:53:38;;;;;;;14.55;6.18;;;2.50;99.90;;;;;;5082944;28;20064;-61
2024/01/05 03:56:04;;;;;;;14.73;5.80;;;2.40;99.90;;;;;;5064246;28;20044;-62
2024/01/05 03:58:29;;;;;;;14.68;6.28;;;2.40;99.90;;;;;;5082361;28;20048;-62
2024/01/05 04:00:56;;;;;;;14.93;6.38;;;2.60;99.90;;;;;;5082547;28;20045;-63
2024/01/05 04:03:21;;;;;;;13.98;6.03;;;2.00;99.90;;;;;;5082091;28;20040;-63
2024/01/05 04:05:48;;;;;;;14.73;6.53;;;3.00;99.90;;;;;;5082395;28;20136;-64
2024/01/05 04:08:13;;;;;;;15.52;6.60;;;2.10;99.90;;;;;;5081924;28;20044;-64
2024/01/05 04:10:39;;;;;;;14.32;5.90;;;2.40;99.90;;;;;;5082412;28;20453;-63
2024/01/05 04:13:05;;;;;;;15.05;5.88;;;1.70;99.90;;;;;;5081770;28;20048;-63
2024/01/05 04:15:37;;;;;;;13.88;5.38;;;2.00;99.90;;;;;;5082125;28;20052;-64
2024/01/05 04:18:04;;;;;;;15.43;6.38;;;1.50;99.90;;;;;;5082402;28;20037;-63
2024/01/05 04:20:30;;;;;;;14.93;5.53;;;1.70;99.90;;;;;;5081866;28;20051;-64
2024/01/05 04:22:56;;;;;;;13.20;5.70;;;1.70;99.90;;;;;;5064327;28;20103;-65
2024/01/05 04:25:21;;;;;;;18.98;6.97;;;1.50;99.90;;;;;;5081716;28;20139;-64
2024/01/05 04:27:47;;;;;;;14.55;5.60;;;3.00;99.90;;;;;;5082175;28;20147;-64
2024/01/05 04:30:13;;;;;;;15.02;6.22;;;1.50;99.90;;;;;;5081463;28;20085;-64
2024/01/05 04:32:38;;;;;;;11.95;6.03;;;2.60;99.90;;;;;;5082137;28;20044;-64
2024/01/05 04:35:04;;;;;;;13.68;5.70;;;2.50;99.90;;;;;;5080318;28;20043;-64
2024/01/05 04:37:30;;;;;;;13.32;6.28;;;1.50;99.90;;;;;;5081717;28;20104;-65
2024/01/05 04:39:56;;;;;;;14.50;6.20;;;2.20;99.90;;;;;;5063997;28;20068;-64
2024/01/05 04:42:22;;;;;;;13.88;5.78;;;3.00;99.90;;;;;;5081104;28;20041;-65
2024/01/05 04:44:49;;;;;;;12.65;5.70;;;1.60;99.90;;;;;;5081635;28;20066;-66
2024/01/05 04:47:15;;;;;;;13.27;6.22;;;2.60;99.90;;;;;;5080963;28;20072;-65
2024/01/05 04:49:41;;;;;;;11.88;5.47;;;2.70;99.90;;;;;;5081722;28;20532;-64
2024/01/05 04:52:07;;;;;;;14.35;5.15;;;2.00;99.90;;;;;;5081570;28;20055;-65
2024/01/05 04:54:33;;;;;;;11.40;5.40;;;2.80;99.90;;;;;;5081313;28;20075;-65
2024/01/05 04:56:58;;;;;;;11.23;5.22;;;2.70;99.90;;;;;;5061918;28;20076;-66
2024/01/05 04:59:24;;;;;;;13.68;6.28;;;3.20;99.90;;;;;;5080564;28;20093;-67
2024/01/05 05:01:50;;;;;;;14.63;5.28;;;2.80;99.90;;;;;;5080119;28;20036;-66
2024/01/05 05:04:17;;;;;;;11.15;4.70;;;3.20;99.90;;;;;;5080684;28;20343;-65
2024/01/05 05:06:43;;;;;;;13.18;4.88;;;1.60;99.90;;;;;;5081163;28;20056;-64
2024/01/05 05:09:10;;;;;;;11.80;5.07;;;1.60;99.90;;;;;;5081262;28;20076;-65
2024/01/05 05:11:36;;;;;;;11.80;4.90;;;2.00;99.90;;;;;;5046467;28;20049;-65
2024/01/05 05:14:01;;;;;;;13.25;5.43;;;2.80;99.90;;;;;;5081319;28;20340;-65
2024/01/05 05:16:27;;;;;;;14.52;5.70;;;3.10;99.90;;;;;;5080785;28;20551;-65
2024/01/05 05:18:53;;;;;;;11.35;4.95;;;3.20;99.90;;;;;;5081210;28;20515;-65
2024/01/05 05:21:19;;;;;;;11.32;4.70;;;1.50;99.90;;;;;;5080571;28;20044;-64
2024/01/05 05:23:44;;;;;;;10.52;4.63;;;1.60;99.90;;;;;;5063346;28;20075;-64
2024/01/05 05:26:10;;;;;;;10.95;4.82;;;1.60;99.90;;;;;;5080784;28;20036;-62
2024/01/05 05:28:36;;;;;;;9.65;4.50;;;1.60;99.90;;;;;;5080595;28;20051;-63
2024/01/05 05:31:02;;;;;;;11.82;4.40;;;2.20;99.90;;;;;;5081172;28;20037;-62
2024/01/05 05:33:27;;;;;;;13.30;4.78;;;3.00;99.90;;;;;;5080493;28;20100;-62
2024/01/05 05:35:53;;;;;;;13.98;5.25;;;3.30;99.90;;;;;;5080549;28;20068;-61
2024/01/05 05:38:19;;;;;;;14.93;5.65;;;2.70;99.90;;;;;;5080180;28;20067;-61
2024/01/05 05:40:44;;;;;;;13.40;5.55;;;1.60;99.90;;;;;;5080870;28;20059;-61
2024/01/05 05:43:11;;;;;;;14.25;6.18;;;2.80;99.90;;;;;;5080304;28;20040;-60
2024/01/05 05:45:37;;;;;;;12.55;5.55;;;2.30;99.90;;;;;;5080404;28;20047;-60
2024/01/05 05:48:04;;;;;;;11.88;5.20;;;2.20;99.90;;;;;;5076772;28;20048;-58
2024/01/05 05:50:29;;;;;;;13.55;5.70;;;3.10;99.90;;;;;;5075951;28;20064;-60
2024/01/05 05:52:55;;;;;;;13.05;5.55;;;2.80;99.90;;;;;;5076862;28;20044;-60
2024/01/05 05:55:21;;;;;;;11.73;5.35;;;3.30;99.90;;;;;;5075789;28;20055;-60
2024/01/05 05:57:47;;;;;;;12.45;4.88;;;3.40;99.90;;;;;;5075650;28;20052;-60
2024/01/05 06:00:13;;;;;;;12.63;5.55;;;2.90;99.90;;;;;;5075906;28;20040;-60
2024/01/05 06:02:39;;;;;;;13.45;5.95;;;3.50;99.90;;;;;;5069244;28;20040;-60
2024/01/05 06:05:05;;;;;;;12.48;5.35;;;2.50;99.90;;;;;;5062435;28;20049;-60
2024/01/05 06:07:31;;;;;;;10.98;4.93;;;2.90;99.90;;;;;;5060872;28;20041;-59
2024/01/05 06:09:58;;;;;;;14.18;5.75;;;3.50;99.90;;;;;;5076079;28;20067;-60
2024/01/05 06:12:24;;;;;;;14.63;5.35;;;3.30;99.90;;;;;;5075084;28;20110;-60
2024/01/05 06:14:50;;;;;;;19.20;7.07;;;2.70;99.90;;;;;;5075665;28;20078;-60
2024/01/05 06:17:16;;;;;;;14.25;6.72;;;2.60;99.90;;;;;;5075444;28;20380;-62
2024/01/05 06:19:43;;;;;;;14.75;6.30;;;1.70;99.90;;;;;;5076026;28;20037;-62
2024/01/05 06:22:08;;;;;;;13.88;6.18;;;2.80;99.90;;;;;;5076154;28;20044;-60
2024/01/05 06:24:34;;;;;;;12.60;5.72;;;3.60;99.90;;;;;;5075555;28;20171;-59
2024/01/05 06:26:59;;;;;;;12.85;5.50;;;1.70;99.90;;;;;;5077219;28;20044;-59
2024/01/05 06:29:25;;;;;;;13.88;6.35;;;2.10;99.90;;;;;;5078245;28;20037;-60
2024/01/05 06:31:51;;;;;;;13.18;7.15;;;2.40;99.90;;;;;;5078978;28;20078;-59
2024/01/05 06:34:17;;;;;;;13.32;5.93;;;2.20;99.90;;;;;;5077654;28;20040;-60
2024/01/05 06:36:43;;;;;;;14.30;6.43;;;3.20;99.90;;;;;;5079742;28;20067;-62
2024/01/05 06:39:08;;;;;;;15.85;6.78;;;3.50;99.90;;;;;;5061052;28;20043;-60
2024/01/05 06:41:34;;;;;;;12.70;5.90;;;3.60;99.90;;;;;;5079124;28;20116;-60
2024/01/05 06:44:00;;;;;;;13.35;5.82;;;3.70;99.90;;;;;;5080068;28;20099;-59
2024/01/05 06:46:27;;;;;;;14.20;7.38;;;2.60;99.90;;;;;;5079249;28;20108;-59
2024/01/05 06:48:54;;;;;;;13.55;6.13;;;3.50;99.90;;;;;;5079781;28;20079;-59
2024/01/05 06:51:23;;;;;;;14.13;6.47;;;2.30;99.90;;;;;;5079173;28;20040;-60
2024/01/05 06:53:48;;;;;;;14.15;6.97;;;3.40;99.90;;;;;;5079603;28;20040;-59
2024/01/05 06:56:14;;;;;;;13.52;6.35;;;2.00;99.90;;;;;;5079378;28;20471;-59
2024/01/05 06:58:40;;;;;;;15.95;7.03;;;3.70;99.90;;;;;;5079265;28;20119;-60
2024/01/05 07:01:06;;;;;;;14.05;6.75;;;3.70;99.90;;;;;;5078459;28;20044;-60
2024/01/05 07:03:32;;;;;;;12.35;6.25;;;3.70;99.90;;;;;;5078878;28;20520;-60
2024/01/05 07:05:58;;;;;;;15.45;7.15;;;3.70;99.90;;;;;;5079458;28;20060;-59
2024/01/05 07:08:24;;;;;;;15.95;7.15;;;3.30;99.90;;;;;;5078853;28;20112;-59
2024/01/05 07:10:49;;;;;;;12.80;6.68;;;3.40;99.90;;;;;;5082366;28;20080;-60
2024/01/05 07:13:15;;;;;;;13.90;6.90;;;2.20;99.90;;;;;;5083327;28;20063;-60
2024/01/05 07:15:41;;;;;;;14.68;7.22;;;3.30;99.90;;;;;;5083356;28;20036;-60
2024/01/05 07:18:07;;;;;;;12.00;5.70;;;3.50;99.90;;;;;;5083709;28;20041;-59
2024/01/05 07:20:33;;;;;;;12.40;6.43;;;2.00;99.90;;;;;;5082987;28;20052;-60
2024/01/05 07:22:59;;;;;;;14.43;6.35;;;1.80;99.90;;;;;;5083201;28;20024;-60
2024/01/05 07:25:25;;;;;;;13.45;6.82;;;1.80;99.90;;;;;;5082805;28;20097;-61
2024/01/05 07:27:51;;;;;;;12.43;6.10;;;3.70;99.90;;;;;;5083096;28;20044;-60
2024/01/05 07:30:17;;;;;;;13.20;6.47;;;1.80;99.90;;;;;;5082988;28;20055;-60
2024/01/05 07:32:43;;;;;;;13.68;6.65;;;3.80;99.90;;;;;;5083074;28;20040;-61
2024/01/05 07:35:10;;;;;;;12.52;6.60;;;2.80;99.90;;;;;;5082937;28;20072;-60
2024/01/05 07:37:37;;;;;;;11.63;6.13;;;1.90;99.90;;;;;;5064561;28;20152;-60
2024/01/05 07:40:04;;;;;;;13.40;6.63;;;2.70;99.90;;;;;;5082982;28;20096;-60
2024/01/05 07:42:31;;;;;;;12.20;5.78;;;3.90;99.90;;;;;;5064374;28;20076;-59
2024/01/05 07:44:57;;;;;;;12.10;6.13;;;2.40;99.90;;;;;;5065000;28;20523;-62
2024/01/05 07:47:24;;;;;;;12.95;6.55;;;2.80;99.90;;;;;;5082530;28;20068;-62
2024/01/05 07:49:49;;;;;;;14.90;6.70;;;3.60;99.90;;;;;;5081714;28;20040;-62
2024/01/05 07:52:16;;;;;;;13.07;6.25;;;1.80;99.90;;;;;;5082638;28;20056;-62
2024/01/05 07:54:42;;;;;;;14.23;6.80;;;3.40;99.90;;;;;;5082553;28;20040;-63
2024/01/05 07:57:08;;;;;;;12.48;6.35;;;3.50;99.90;;;;;;5064384;28;20526;-63
2024/01/05 07:59:35;;;;;;;14.48;6.82;;;4.00;99.90;;;;;;5082196;28;20098;-63
2024/01/05 08:02:01;;;;;;;12.80;6.47;;;1.90;99.90;;;;;;5082536;28;20048;-63
2024/01/05 08:04:28;;;;;;;15.73;6.78;;;4.10;99.90;;;;;;5081704;28;20045;-63
2024/01/05 08:06:53;;;;;;;14.70;6.80;;;3.90;99.90;;;;;;5082499;28;20040;-63
2024/01/05 08:09:19;;;;;;;15.88;8.15;;;4.10;99.90;;;;;;5082404;28;20480;-63
2024/01/05 08:11:45;;;;;;;13.40;6.93;;;2.10;99.90;;;;;;5082120;28;20448;-62
2024/01/05 08:14:10;;;;;;;16.20;7.25;;;2.90;99.90;;;;;;5081128;28;20131;-62
2024/01/05 08:16:36;;;;;;;13.43;6.80;;;3.20;99.90;;;;;;5081516;28;20053;-61
2024/01/05 08:19:02;;;;;;;14.10;7.22;;;1.90;99.90;;;;;;5082367;28;20041;-61
2024/01/05 08:21:28;;;;;;;16.73;7.80;;;3.40;99.90;;;;;;5081094;28;20175;-60
2024/01/05 08:23:54;;;;;;;15.18;6.75;;;4.10;99.90;;;;;;5082327;28;20049;-61
2024/01/05 08:26:20;;;;;;;16.58;7.57;;;3.60;99.90;;;;;;5082056;28;20068;-59
2024/01/05 08:28:46;;;;;;;15.80;8.57;;;2.50;99.90;;;;;;5082060;28;20036;-60
2024/01/05 08:31:12;;;;;;;19.25;9.15;;;2.60;99.90;;;;;;5082242;28;20093;-61
2024/01/05 08:33:38;;;;;;;18.75;8.45;;;1.90;99.90;;;;;;5081480;28;20111;-60
2024/01/05 08:36:04;;;;;;;19.35;9.60;;;2.30;99.90;;;;;;5063727;28;20076;-60
2024/01/05 08:38:29;;;;;;;20.13;9.43;;;2.20;99.90;;;;;;5081295;28;20044;-60
2024/01/05 08:40:55;;;;;;;22.40;9.13;;;2.60;99.90;;;;;;5081995;28;20067;-60
2024/01/05 08:43:21;;;;;;;19.00;8.93;;;4.30;99.90;;;;;;5081785;28;20060;-60
2024/01/05 08:45:47;;;;;;;19.73;9.30;;;2.10;99.90;;;;;;5080194;28;20503;-59
2024/01/05 08:48:15;;;;;;;19.42;9.48;;;2.20;99.90;;;;;;5081843;28;20078;-60
2024/01/05 08:50:40;;;;;;;19.80;9.98;;;3.00;99.90;;;;;;5079622;28;20044;-59
2024/01/05 08:53:06;;;;;;;21.15;9.95;;;4.30;99.90;;;;;;5081763;28;20108;-60
2024/01/05 08:55:32;;;;;;;22.55;9.88;;;2.20;99.90;;;;;;5081245;28;20100;-59
2024/01/05 08:57:58;;;;;;;21.80;10.30;;;3.00;99.90;;;;;;5081072;28;20057;-59
2024/01/05 09:00:25;;;;;;;19.42;10.10;;;2.10;99.90;;;;;;5081490;28;20050;-59
2024/01/05 09:02:52;;;;;;;22.33;10.77;;;2.30;99.90;;;;;;5081398;28;20056;-60
2024/01/05 09:05:17;;;;;;;20.98;10.68;;;4.30;99.90;;;;;;5081358;28;20058;-61
2024/01/05 09:07:43;;;;;;;22.05;10.30;;;2.40;99.90;;;;;;5080747;28;20425;-62
2024/01/05 09:10:09;;;;;;;23.48;10.40;;;4.40;99.90;;;;;;5081490;28;20108;-63
2024/01/05 09:12:35;;;;;;;20.33;9.30;;;2.30;99.90;;;;;;5062473;28;20047;-63
2024/01/05 09:15:00;;;;;;;20.52;9.50;;;2.30;99.90;;;;;;5081368;28;20044;-62
2024/01/05 09:17:26;;;;;;;20.10;9.90;;;3.90;99.90;;;;;;5062662;28;20063;-63
2024/01/05 09:19:52;;;;;;;21.40;9.68;;;2.10;99.90;;;;;;5081021;28;20123;-64
2024/01/05 09:22:17;;;;;;;18.77;10.02;;;3.90;99.90;;;;;;5081273;28;20044;-64
2024/01/05 09:24:43;;;;;;;19.30;9.30;;;2.30;99.90;;;;;;5079282;28;20039;-64
2024/01/05 09:27:09;;;;;;;17.20;8.63;;;2.10;99.90;;;;;;5081178;28;20431;-65
2024/01/05 09:29:34;;;;;;;18.08;8.48;;;4.50;99.90;;;;;;5080383;28;20119;-65
2024/01/05 09:32:01;;;;;;;19.45;8.52;;;2.60;99.90;;;;;;5080290;28;20052;-65
2024/01/05 09:34:26;;;;;;;20.20;9.77;;;4.50;99.90;;;;;;5079946;28;20036;-65
2024/01/05 09:36:53;;;;;;;15.93;8.50;;;2.60;99.90;;;;;;5062820;28;20483;-65
2024/01/05 09:39:19;;;;;;;15.55;8.00;;;4.10;99.90;;;;;;5080729;28;20119;-65
2024/01/05 09:41:48;;;;;;;16.38;7.78;;;4.50;99.90;;;;;;5080515;28;20071;-65
2024/01/05 09:44:15;;;;;;;15.38;6.90;;;2.40;99.90;;;;;;5080530;28;20545;-66
2024/01/05 09:46:43;;;;;;;15.05;7.53;;;3.40;99.90;;;;;;5061846;28;20064;-65
2024/01/05 09:49:09;;;;;;;13.98;7.10;;;4.10;99.90;;;;;;5080421;28;20041;-65
2024/01/05 09:51:35;;;;;;;15.77;6.95;;;4.50;99.90;;;;;;5080037;28;20222;-66
2024/01/05 09:54:02;;;;;;;12.75;6.60;;;3.90;99.90;;;;;;5080535;28;20044;-66
2024/01/05 09:56:28;;;;;;;14.38;7.20;;;4.50;99.90;;;;;;5080196;28;20048;-66
2024/01/05 09:58:55;;;;;;;13.45;6.70;;;3.80;99.90;;;;;;5079601;28;20113;-66
2024/01/05 10:01:26;;;;;;;15.25;7.65;;;2.40;99.90;;;;;;5080346;28;20582;-66
2024/01/05 10:03:56;;;;;;;15.02;6.85;;;4.10;99.90;;;;;;5061286;28;20515;-67
2024/01/05 10:06:22;;;;;;;13.38;6.63;;;2.50;99.90;;;;;;5080137;28;20045;-66
2024/01/05 10:08:57;;;;;;;13.55;6.80;;;4.70;99.90;;;;;;5078564;28;20043;-66
2024/01/05 10:11:30;;;;;;;13.88;6.60;;;2.40;99.90;;;;;;5078843;28;20454;-67
2024/01/05 10:14:00;;;;;;;15.85;7.50;;;2.80;99.90;;;;;;5080192;28;20036;-66
2024/01/05 10:16:33;;;;;;;11.82;5.90;;;4.60;99.90;;;;;;5078058;28;20040;-66
2024/01/05 10:19:08;;;;;;;13.93;6.32;;;2.70;99.90;;;;;;5080259;28;20088;-65
2024/01/05 10:21:34;;;;;;;12.55;5.80;;;4.50;99.90;;;;;;5079597;28;20051;-66
2024/01/05 10:24:00;;;;;;;12.93;6.03;;;4.80;99.90;;;;;;5061912;28;20071;-66
2024/01/05 10:26:26;;;;;;;13.02;5.90;;;3.00;99.90;;;;;;5061922;28;20044;-65
2024/01/05 10:28:52;;;;;;;13.65;6.50;;;5.00;99.90;;;;;;5079910;28;20044;-65
2024/01/05 10:31:18;;;;;;;12.70;6.20;;;4.80;99.90;;;;;;5062089;28;20051;-64
2024/01/05 10:34:02;;;;;;;16.15;7.40;;;3.20;99.90;;;;;;5060793;28;20040;-63
2024/01/05 10:36:28;;;;;;;13.65;6.53;;;4.20;99.90;;;;;;5079739;28;20059;-64
2024/01/05 10:38:53;;;;;;;14.13;7.07;;;3.90;99.90;;;;;;5079567;28;20037;-64
2024/01/05 10:41:23;;;;;;;12.65;5.93;;;3.30;99.90;;;;;;5079703;28;20070;-64
2024/01/05 10:43:49;;;;;;;15.88;7.35;;;2.80;99.90;;;;;;5079835;28;20395;-63
2024/01/05 10:46:17;;;;;;;14.95;7.15;;;5.00;99.90;;;;;;5061346;28;20037;-63
2024/01/05 10:48:43;;;;;;;15.02;6.95;;;2.90;99.90;;;;;;5079694;28;20123;-63
2024/01/05 10:51:15;;;;;;;14.10;7.47;;;4.10;99.90;;;;;;5061297;28;20116;-63
2024/01/05 10:53:42;;;;;;;13.60;7.07;;;4.10;99.90;;;;;;5079753;28;20489;-63
2024/01/05 10:56:09;;;;;;;15.32;7.30;;;2.80;99.90;;;;;;5079553;28;20059;-63
2024/01/05 10:58:35;;;;;;;17.15;7.88;;;2.90;99.90;;;;;;5079200;28;20048;-63
2024/01/05 11:01:02;;;;;;;15.77;7.45;;;4.20;99.90;;;;;;5079697;28;20106;-61
2024/01/05 11:03:38;;;;;;;17.45;7.75;;;3.20;99.90;;;;;;5079220;28;20044;-63
2024/01/05 11:06:10;;;;;;;13.90;7.53;;;4.10;99.90;;;;;;5079221;28;20539;-62
2024/01/05 11:08:45;;;;;;;;;;;4.20;99.90;;;;;;5079712;28;20037;-63
2024/01/05 11:11:18;;;;;;;16.20;7.80;;;3.80;99.90;;;;;;5079738;28;19974;-62
2024/01/05 11:14:16;;;;;;;16.45;8.32;;;4.30;99.90;;;;;;5079636;28;20041;-61
2024/01/05 11:17:16;;;;;;;16.60;8.18;;;4.40;99.90;;;;;;5078908;28;20048;-60
2024/01/05 11:19:48;;;;;;;17.25;8.27;;;4.00;99.90;;;;;;5079578;28;20044;-61
2024/01/05 11:22:19;;;;;;;18.15;7.95;;;4.80;99.90;;;;;;5079550;28;20071;-62
2024/01/05 11:24:45;;;;;;;15.77;8.13;;;3.30;99.90;;;;;;5078765;28;20045;-62
2024/01/05 11:27:33;;;;;;;14.95;6.95;;;3.60;99.90;;;;;;5079542;28;20491;-61
2024/01/05 11:30:00;;;;;;;14.88;7.55;;;5.40;99.90;;;;;;5078850;28;20071;-62
2024/01/05 11:32:37;;;;;;;15.63;7.80;;;5.70;99.90;;;;;;5078980;28;20111;-62
2024/01/05 11:35:23;;;;;;;15.07;7.57;;;3.20;99.90;;;;;;5078778;28;20479;-62
2024/01/05 11:37:50;;;;;;;13.85;7.30;;;3.20;99.90;;;;;;5078658;28;20040;-62
2024/01/05 11:40:25;;;;;;;15.02;6.75;;;4.20;99.90;;;;;;5060936;28;20060;-61
2024/01/05 11:42:52;;;;;;;15.23;7.55;;;4.60;99.90;;;;;;5078776;28;20048;-61
2024/01/05 11:45:52;;;;;;;13.85;6.93;;;5.10;99.90;;;;;;5079270;28;20063;-61
2024/01/05 11:48:33;;;;;;;15.10;7.88;;;3.90;99.90;;;;;;5079370;28;20044;-61
2024/01/05 11:51:00;;;;;;;14.82;7.72;;;3.90;99.90;;;;;;5078438;28;20053;-61
2024/01/05 11:53:28;;;;;;;14.07;7.47;;;3.80;99.90;;;;;;5079238;28;20496;-60
2024/01/05 11:56:03;;;;;;;14.55;7.07;;;5.60;99.90;;;;;;5079579;28;20117;-61
2024/01/05 11:58:33;;;;;;;14.20;8.07;;;3.70;99.90;;;;;;5082350;28;20591;-60
2024/01/05 12:00:59;;;;;;;15.82;8.00;;;3.40;99.90;;;;;;5082853;28;20048;-61
2024/01/05 12:03:26;;;;;;;17.33;8.07;;;5.80;99.90;;;;;;5082157;28;20085;-61
2024/01/05 12:05:57;;;;;;;17.65;7.90;;;4.90;99.90;;;;;;5081949;28;20127;-61
2024/01/05 12:08:23;;;;;;;16.08;8.07;;;4.10;99.90;;;;;;5081537;28;20036;-60
2024/01/05 12:11:15;;;;;;;15.10;7.90;;;3.40;99.90;;;;;;5082238;28;20088;-60
2024/01/05 12:13:41;;;;;;;17.77;8.45;;;5.20;99.90;;;;;;5061636;28;20056;-60
2024/01/05 12:16:08;;;;;;;17.02;8.80;;;5.50;99.90;;;;;;5081772;28;20459;-60
2024/01/05 12:18:47;;;;;;;16.20;8.35;;;5.50;99.90;;;;;;5082441;28;20041;-60
2024/01/05 12:21:14;;;;;;;17.20;8.40;;;4.60;99.90;;;;;;5081784;28;20051;-60
2024/01/05 12:23:53;;;;;;;16.05;7.57;;;3.60;99.90;;;;;;5082387;28;20420;-60
2024/01/05 12:26:19;;;;;;;18.65;8.20;;;3.40;99.90;;;;;;5082274;28;20028;-59
2024/01/05 12:28:47;;;;;;;15.65;7.88;;;3.60;99.90;;;;;;5082222;28;20051;-60
2024/01/05 12:31:13;;;;;;;17.70;8.27;;;5.00;99.90;;;;;;5082192;28;20092;-60
2024/01/05 12:33:39;;;;;;;15.05;7.35;;;4.00;99.90;;;;;;5081345;28;20048;-60
2024/01/05 12:36:09;;;;;;;14.88;7.68;;;5.90;99.90;;;;;;5082120;28;20055;-59
2024/01/05 12:38:35;;;;;;;14.68;8.02;;;3.60;99.90;;;;;;5063450;28;20047;-60
2024/01/05 12:41:08;;;;;;;15.38;7.00;;;6.00;99.90;;;;;;5081845;28;20074;-60
2024/01/05 12:43:43;;;;;;;13.63;6.45;;;6.00;99.90;;;;;;5082103;28;20041;-59
2024/01/05 12:46:09;;;;;;;14.63;7.40;;;4.20;99.90;;;;;;5063353;28;20048;-60
2024/01/05 12:48:35;;;;;;;12.70;6.28;;;6.00;99.90;;;;;;5081759;28;20080;-60